Portada
METAR-TAF:

METAR-TAF

Aeropuertos :

Aeropuerto Internacional de Sunan

Pionyang, Corea del Norte

latitud: 39-02N, longitud: 125-47E, altitud: 36 m

METAR: falta

Hora: 04:19 (19:49 UTC)

Pronóstico

El informe se hizo hace 15 horas y 39 minutos, a las 04:10 UTC
Pronóstico válido del 18 a las 06 UTC al 19 a las 06 UTC
Viento 10 kt del sur
Visibilidad 10 km o más
sin nubes por debajo de 1500 m y sin presencia de cumulonimbus.
Temporalmente
del 18 a las 18 UTC al 19 a las 02 UTC
Visibilidad: 0500 m
Cielo nuboso a una altura de 3000 ft
niebla

TAF: ZKPY 180410Z 1806/1906 18005MPS CAVOK TX14/1806Z TN02/1822Z TEMPO 1818/1902 0500 FG BKN030

Observaciones y pronósticos meteorológicos de más de 4000 aeropuertos (mensajes METAR y TAF).

Los puntos amarillos y rojos representan las estaciones disponibles.

Ponga el ratón en el punto deseado para ver el nombre de la estación.

Haga clic para ver las observaciones y los pronósticos meteorológicos.

Para cambiar el mapa : haga clic en los botones verdes con una cruz de color negro para hacer un zoom, en el botón verde con un guión para alejar o en las flechas verdes para mapas adyacentes.


METAR-TAF: